sensor_id;sensor_type;location;lat;lon;timestamp;P1;durP1;ratioP1;P2;durP2;ratioP2
75516;SDS011;64097;52.548;13.406;2023-07-31T06:03:16;2.50;;;1.60;;
75516;SDS011;64097;52.548;13.406;2023-07-31T06:05:42;2.55;;;1.77;;
75516;SDS011;64097;52.548;13.406;2023-07-31T06:08:07;1.83;;;1.60;;
75516;SDS011;64097;52.548;13.406;2023-07-31T06:10:33;2.17;;;1.52;;
75516;SDS011;64097;52.548;13.406;2023-07-31T06:12:59;2.83;;;1.90;;
75516;SDS011;64097;52.548;13.406;2023-07-31T06:15:25;2.58;;;1.70;;
75516;SDS011;64097;52.548;13.406;2023-07-31T06:17:51;3.38;;;1.60;;
75516;SDS011;64097;52.548;13.406;2023-07-31T06:20:17;3.55;;;1.90;;
75516;SDS011;64097;52.548;13.406;2023-07-31T06:22:42;2.92;;;2.28;;
75516;SDS011;64097;52.548;13.406;2023-07-31T06:25:08;2.40;;;1.70;;
75516;SDS011;64097;52.548;13.406;2023-07-31T06:27:34;2.50;;;1.73;;
75516;SDS011;64097;52.548;13.406;2023-07-31T06:30:00;2.67;;;1.65;;
75516;SDS011;64097;52.548;13.406;2023-07-31T06:32:25;3.90;;;2.00;;
75516;SDS011;64097;52.548;13.406;2023-07-31T06:34:51;2.53;;;1.63;;
75516;SDS011;64097;52.548;13.406;2023-07-31T06:37:17;2.63;;;1.77;;
75516;SDS011;64097;52.548;13.406;2023-07-31T06:39:42;2.05;;;1.50;;
75516;SDS011;64097;52.548;13.406;2023-07-31T06:42:08;3.03;;;1.60;;
75516;SDS011;64097;52.548;13.406;2023-07-31T06:44:34;2.80;;;1.60;;
75516;SDS011;64097;52.548;13.406;2023-07-31T06:46:59;1.60;;;1.48;;
75516;SDS011;64097;52.548;13.406;2023-07-31T06:49:25;4.05;;;3.20;;
75516;SDS011;64097;52.548;13.406;2023-07-31T06:51:51;3.75;;;2.75;;
75516;SDS011;64097;52.548;13.406;2023-07-31T06:54:16;2.45;;;1.60;;
75516;SDS011;64097;52.548;13.406;2023-07-31T06:56:42;2.30;;;1.60;;
75516;SDS011;64097;52.548;13.406;2023-07-31T06:59:08;2.55;;;1.70;;
75516;SDS011;64097;52.548;13.406;2023-07-31T07:01:33;2.28;;;1.80;;
75516;SDS011;64097;52.548;13.406;2023-07-31T07:03:59;2.10;;;1.50;;
75516;SDS011;64097;52.548;13.406;2023-07-31T07:06:25;2.83;;;1.40;;
75516;SDS011;64097;52.548;13.406;2023-07-31T07:08:50;2.17;;;1.30;;
75516;SDS011;64097;52.548;13.406;2023-07-31T07:11:16;2.53;;;1.70;;
75516;SDS011;64097;52.548;13.406;2023-07-31T07:13:42;2.17;;;1.40;;
75516;SDS011;64097;52.548;13.406;2023-07-31T07:16:07;3.67;;;2.35;;
75516;SDS011;64097;52.548;13.406;2023-07-31T07:18:33;6.72;;;4.97;;
75516;SDS011;64097;52.548;13.406;2023-07-31T07:20:59;2.70;;;2.10;;
75516;SDS011;64097;52.548;13.406;2023-07-31T07:23:27;2.78;;;2.15;;
75516;SDS011;64097;52.548;13.406;2023-07-31T07:25:52;2.10;;;1.70;;
75516;SDS011;64097;52.548;13.406;2023-07-31T07:28:18;3.03;;;1.50;;
75516;SDS011;64097;52.548;13.406;2023-07-31T07:30:44;2.40;;;1.60;;
75516;SDS011;64097;52.548;13.406;2023-07-31T07:33:09;2.28;;;1.40;;
75516;SDS011;64097;52.548;13.406;2023-07-31T07:35:36;3.17;;;1.85;;
75516;SDS011;64097;52.548;13.406;2023-07-31T07:38:02;2.33;;;1.50;;
75516;SDS011;64097;52.548;13.406;2023-07-31T07:40:28;3.50;;;1.80;;
75516;SDS011;64097;52.548;13.406;2023-07-31T07:42:54;3.05;;;1.67;;
75516;SDS011;64097;52.548;13.406;2023-07-31T07:45:20;1.98;;;1.35;;
75516;SDS011;64097;52.548;13.406;2023-07-31T07:47:45;2.00;;;1.35;;
75516;SDS011;64097;52.548;13.406;2023-07-31T07:50:11;2.50;;;1.70;;
75516;SDS011;64097;52.548;13.406;2023-07-31T07:52:37;2.58;;;1.58;;
75516;SDS011;64097;52.548;13.406;2023-07-31T07:55:03;1.83;;;1.40;;
75516;SDS011;64097;52.548;13.406;2023-07-31T07:57:29;2.55;;;1.88;;
75516;SDS011;64097;52.548;13.406;2023-07-31T07:59:54;2.25;;;1.85;;
75516;SDS011;64097;52.548;13.406;2023-07-31T08:02:21;2.35;;;1.65;;
75516;SDS011;64097;52.548;13.406;2023-07-31T08:04:47;1.90;;;1.58;;
75516;SDS011;64097;52.548;13.406;2023-07-31T08:07:13;1.27;;;1.10;;
75516;SDS011;64097;52.548;13.406;2023-07-31T08:09:39;1.73;;;1.50;;
75516;SDS011;64097;52.548;13.406;2023-07-31T08:12:06;1.90;;;1.50;;
75516;SDS011;64097;52.548;13.406;2023-07-31T08:14:32;2.33;;;1.70;;
75516;SDS011;64097;52.548;13.406;2023-07-31T08:16:58;2.70;;;1.52;;
75516;SDS011;64097;52.548;13.406;2023-07-31T08:19:24;1.95;;;1.40;;
75516;SDS011;64097;52.548;13.406;2023-07-31T08:21:50;1.90;;;1.50;;
75516;SDS011;64097;52.548;13.406;2023-07-31T08:24:15;2.63;;;1.30;;
75516;SDS011;64097;52.548;13.406;2023-07-31T08:26:41;2.22;;;1.35;;
75516;SDS011;64097;52.548;13.406;2023-07-31T08:29:07;1.38;;;1.13;;
75516;SDS011;64097;52.548;13.406;2023-07-31T08:31:33;2.75;;;1.33;;
75516;SDS011;64097;52.548;13.406;2023-07-31T08:33:59;1.50;;;1.13;;
75516;SDS011;64097;52.548;13.406;2023-07-31T08:36:27;1.20;;;1.00;;
75516;SDS011;64097;52.548;13.406;2023-07-31T08:38:52;1.70;;;1.30;;
75516;SDS011;64097;52.548;13.406;2023-07-31T08:41:18;1.30;;;0.90;;
75516;SDS011;64097;52.548;13.406;2023-07-31T08:43:45;1.63;;;1.50;;
75516;SDS011;64097;52.548;13.406;2023-07-31T08:46:11;2.70;;;1.88;;
75516;SDS011;64097;52.548;13.406;2023-07-31T08:48:39;4.80;;;2.97;;
75516;SDS011;64097;52.548;13.406;2023-07-31T08:51:07;2.30;;;1.05;;
75516;SDS011;64097;52.548;13.406;2023-07-31T08:53:33;1.67;;;1.30;;
75516;SDS011;64097;52.548;13.406;2023-07-31T08:55:59;1.60;;;1.02;;
75516;SDS011;64097;52.548;13.406;2023-07-31T08:58:27;1.88;;;1.00;;
75516;SDS011;64097;52.548;13.406;2023-07-31T09:01:01;1.50;;;1.10;;
75516;SDS011;64097;52.548;13.406;2023-07-31T09:03:29;1.10;;;1.00;;
75516;SDS011;64097;52.548;13.406;2023-07-31T09:05:59;1.23;;;1.08;;
75516;SDS011;64097;52.548;13.406;2023-07-31T09:08:25;1.67;;;1.30;;
75516;SDS011;64097;52.548;13.406;2023-07-31T09:10:55;1.20;;;1.10;;
75516;SDS011;64097;52.548;13.406;2023-07-31T09:13:27;2.08;;;1.20;;
75516;SDS011;64097;52.548;13.406;2023-07-31T09:15:54;1.27;;;0.90;;
75516;SDS011;64097;52.548;13.406;2023-07-31T09:18:20;1.02;;;0.93;;
75516;SDS011;64097;52.548;13.406;2023-07-31T09:21:00;1.08;;;0.93;;
75516;SDS011;64097;52.548;13.406;2023-07-31T09:23:26;2.33;;;1.42;;
75516;SDS011;64097;52.548;13.406;2023-07-31T09:28:57;1.45;;;1.20;;
75516;SDS011;64097;52.548;13.406;2023-07-31T09:34:08;1.27;;;1.00;;
75516;SDS011;64097;52.548;13.406;2023-07-31T09:36:43;1.73;;;1.02;;
75516;SDS011;64097;52.548;13.406;2023-07-31T09:39:14;2.20;;;1.17;;
75516;SDS011;64097;52.548;13.406;2023-07-31T09:41:45;1.60;;;1.10;;
75516;SDS011;64097;52.548;13.406;2023-07-31T09:44:19;1.13;;;1.02;;
75516;SDS011;64097;52.548;13.406;2023-07-31T09:46:45;1.13;;;1.00;;
75516;SDS011;64097;52.548;13.406;2023-07-31T09:49:11;1.48;;;0.90;;
75516;SDS011;64097;52.548;13.406;2023-07-31T09:51:41;1.58;;;0.90;;
75516;SDS011;64097;52.548;13.406;2023-07-31T09:54:14;1.27;;;0.90;;
75516;SDS011;64097;52.548;13.406;2023-07-31T09:56:44;1.10;;;0.98;;
75516;SDS011;64097;52.548;13.406;2023-07-31T09:59:12;1.25;;;0.88;;
75516;SDS011;64097;52.548;13.406;2023-07-31T10:01:42;1.10;;;1.00;;
75516;SDS011;64097;52.548;13.406;2023-07-31T10:04:09;1.70;;;1.60;;
75516;SDS011;64097;52.548;13.406;2023-07-31T10:06:37;1.10;;;0.93;;
75516;SDS011;64097;52.548;13.406;2023-07-31T10:09:08;1.20;;;1.10;;
75516;SDS011;64097;52.548;13.406;2023-07-31T10:11:41;0.82;;;0.77;;
75516;SDS011;64097;52.548;13.406;2023-07-31T10:14:15;0.80;;;0.80;;
75516;SDS011;64097;52.548;13.406;2023-07-31T10:16:44;1.25;;;0.90;;
75516;SDS011;64097;52.548;13.406;2023-07-31T10:19:10;1.38;;;0.90;;
75516;SDS011;64097;52.548;13.406;2023-07-31T10:21:37;1.20;;;1.10;;
75516;SDS011;64097;52.548;13.406;2023-07-31T10:24:03;1.58;;;1.20;;
75516;SDS011;64097;52.548;13.406;2023-07-31T10:26:30;2.78;;;1.40;;
75516;SDS011;64097;52.548;13.406;2023-07-31T10:28:58;1.50;;;1.40;;
75516;SDS011;64097;52.548;13.406;2023-07-31T10:31:25;1.70;;;1.60;;
75516;SDS011;64097;52.548;13.406;2023-07-31T10:33:53;2.13;;;1.83;;
75516;SDS011;64097;52.548;13.406;2023-07-31T10:36:20;1.85;;;1.50;;
75516;SDS011;64097;52.548;13.406;2023-07-31T10:38:49;2.70;;;1.80;;
75516;SDS011;64097;52.548;13.406;2023-07-31T10:41:15;2.10;;;1.90;;
75516;SDS011;64097;52.548;13.406;2023-07-31T10:43:41;2.33;;;2.10;;
75516;SDS011;64097;52.548;13.406;2023-07-31T10:46:08;1.67;;;1.58;;
75516;SDS011;64097;52.548;13.406;2023-07-31T10:48:34;2.63;;;1.90;;
75516;SDS011;64097;52.548;13.406;2023-07-31T10:51:02;3.53;;;2.30;;
75516;SDS011;64097;52.548;13.406;2023-07-31T10:53:42;2.78;;;2.10;;
75516;SDS011;64097;52.548;13.406;2023-07-31T10:56:08;2.78;;;2.13;;
75516;SDS011;64097;52.548;13.406;2023-07-31T10:58:37;2.45;;;1.90;;
75516;SDS011;64097;52.548;13.406;2023-07-31T11:01:04;2.38;;;2.03;;
75516;SDS011;64097;52.548;13.406;2023-07-31T11:03:40;2.63;;;2.05;;
75516;SDS011;64097;52.548;13.406;2023-07-31T11:06:07;3.92;;;2.40;;
75516;SDS011;64097;52.548;13.406;2023-07-31T11:08:34;3.85;;;2.10;;
75516;SDS011;64097;52.548;13.406;2023-07-31T11:13:30;2.35;;;2.10;;
75516;SDS011;64097;52.548;13.406;2023-07-31T11:15:56;1.83;;;1.70;;
75516;SDS011;64097;52.548;13.406;2023-07-31T11:18:22;2.60;;;2.00;;
75516;SDS011;64097;52.548;13.406;2023-07-31T11:20:48;2.40;;;2.13;;
75516;SDS011;64097;52.548;13.406;2023-07-31T11:23:15;2.70;;;2.10;;
75516;SDS011;64097;52.548;13.406;2023-07-31T11:25:42;2.67;;;2.25;;
75516;SDS011;64097;52.548;13.406;2023-07-31T11:28:15;2.78;;;2.17;;
75516;SDS011;64097;52.548;13.406;2023-07-31T11:30:42;2.38;;;1.73;;
75516;SDS011;64097;52.548;13.406;2023-07-31T11:33:10;4.35;;;2.63;;
75516;SDS011;64097;52.548;13.406;2023-07-31T11:38:10;3.03;;;2.45;;
75516;SDS011;64097;52.548;13.406;2023-07-31T11:40:41;2.47;;;2.17;;
75516;SDS011;64097;52.548;13.406;2023-07-31T11:43:07;3.97;;;2.40;;
75516;SDS011;64097;52.548;13.406;2023-07-31T11:45:33;2.60;;;2.40;;
75516;SDS011;64097;52.548;13.406;2023-07-31T11:48:00;2.72;;;2.47;;
75516;SDS011;64097;52.548;13.406;2023-07-31T11:50:26;3.15;;;2.20;;
75516;SDS011;64097;52.548;13.406;2023-07-31T11:53:00;2.38;;;2.08;;
75516;SDS011;64097;52.548;13.406;2023-07-31T11:55:32;2.67;;;2.40;;
75516;SDS011;64097;52.548;13.406;2023-07-31T11:57:58;2.30;;;2.03;;
75516;SDS011;64097;52.548;13.406;2023-07-31T12:00:25;4.55;;;2.50;;
75516;SDS011;64097;52.548;13.406;2023-07-31T12:02:52;3.28;;;2.30;;
75516;SDS011;64097;52.548;13.406;2023-07-31T12:05:19;3.00;;;1.98;;
75516;SDS011;64097;52.548;13.406;2023-07-31T12:07:48;2.22;;;1.90;;
75516;SDS011;64097;52.548;13.406;2023-07-31T12:10:29;2.67;;;2.33;;
75516;SDS011;64097;52.548;13.406;2023-07-31T12:15:28;2.78;;;2.28;;
75516;SDS011;64097;52.548;13.406;2023-07-31T12:17:58;2.50;;;2.30;;
75516;SDS011;64097;52.548;13.406;2023-07-31T12:20:24;2.70;;;2.25;;
75516;SDS011;64097;52.548;13.406;2023-07-31T12:22:51;2.88;;;2.30;;
75516;SDS011;64097;52.548;13.406;2023-07-31T12:25:17;2.45;;;2.10;;
75516;SDS011;64097;52.548;13.406;2023-07-31T12:27:45;3.15;;;2.08;;
75516;SDS011;64097;52.548;13.406;2023-07-31T12:33:13;3.85;;;3.45;;
75516;SDS011;64097;52.548;13.406;2023-07-31T12:35:46;2.40;;;2.20;;
75516;SDS011;64097;52.548;13.406;2023-07-31T12:38:12;2.33;;;2.13;;
75516;SDS011;64097;52.548;13.406;2023-07-31T12:40:39;2.38;;;1.80;;
75516;SDS011;64097;52.548;13.406;2023-07-31T12:43:06;2.88;;;2.30;;
75516;SDS011;64097;52.548;13.406;2023-07-31T12:45:32;2.15;;;1.92;;
75516;SDS011;64097;52.548;13.406;2023-07-31T12:47:58;2.22;;;1.90;;
75516;SDS011;64097;52.548;13.406;2023-07-31T12:50:25;2.47;;;1.77;;
75516;SDS011;64097;52.548;13.406;2023-07-31T12:52:51;2.90;;;2.03;;
75516;SDS011;64097;52.548;13.406;2023-07-31T12:55:20;2.38;;;2.00;;
75516;SDS011;64097;52.548;13.406;2023-07-31T12:57:47;2.33;;;2.10;;
75516;SDS011;64097;52.548;13.406;2023-07-31T13:00:12;2.47;;;2.10;;
75516;SDS011;64097;52.548;13.406;2023-07-31T13:02:38;2.55;;;1.88;;
75516;SDS011;64097;52.548;13.406;2023-07-31T13:05:04;2.55;;;1.80;;
75516;SDS011;64097;52.548;13.406;2023-07-31T13:07:30;2.17;;;1.90;;
75516;SDS011;64097;52.548;13.406;2023-07-31T13:09:56;1.90;;;1.70;;
75516;SDS011;64097;52.548;13.406;2023-07-31T13:12:22;2.22;;;1.80;;
75516;SDS011;64097;52.548;13.406;2023-07-31T13:14:47;1.75;;;1.60;;
75516;SDS011;64097;52.548;13.406;2023-07-31T13:17:13;2.55;;;1.65;;
75516;SDS011;64097;52.548;13.406;2023-07-31T13:19:38;1.40;;;1.30;;
75516;SDS011;64097;52.548;13.406;2023-07-31T13:22:04;2.40;;;1.38;;
75516;SDS011;64097;52.548;13.406;2023-07-31T13:24:30;1.27;;;1.10;;
75516;SDS011;64097;52.548;13.406;2023-07-31T13:26:56;1.20;;;1.10;;
75516;SDS011;64097;52.548;13.406;2023-07-31T13:29:22;1.60;;;1.50;;
75516;SDS011;64097;52.548;13.406;2023-07-31T13:31:48;2.47;;;1.30;;
75516;SDS011;64097;52.548;13.406;2023-07-31T13:34:14;2.13;;;1.40;;
75516;SDS011;64097;52.548;13.406;2023-07-31T13:36:40;1.55;;;1.45;;
75516;SDS011;64097;52.548;13.406;2023-07-31T13:39:06;1.77;;;1.23;;
75516;SDS011;64097;52.548;13.406;2023-07-31T13:41:32;1.50;;;1.30;;
75516;SDS011;64097;52.548;13.406;2023-07-31T13:43:58;1.55;;;1.30;;
75516;SDS011;64097;52.548;13.406;2023-07-31T13:46:23;1.88;;;1.60;;
75516;SDS011;64097;52.548;13.406;2023-07-31T13:48:50;2.50;;;1.52;;
75516;SDS011;64097;52.548;13.406;2023-07-31T13:51:16;2.10;;;1.60;;
75516;SDS011;64097;52.548;13.406;2023-07-31T13:53:42;2.20;;;1.80;;
75516;SDS011;64097;52.548;13.406;2023-07-31T13:56:07;2.33;;;2.13;;
75516;SDS011;64097;52.548;13.406;2023-07-31T13:58:33;2.20;;;2.00;;
